Time;durP1;ratioP1;P1;durP2;ratioP2;P2;SDS_P1;SDS_P2;PMS_P1;PMS_P2;Temp;Humidity;BMP_temperature;BMP_pressure;BME280_temperature;BME280_humidity;BME280_pressure;Samples;Min_cycle;Max_cycle;Signal;HPM_P1;HPM_P2
2022/10/17 00:00:36;;;;;;;9.95;6.28;;;16.10;99.90;;;16.55;100.00;101375.31;4897592;29;20052;-74
2022/10/17 00:03:04;;;;;;;10.95;7.72;;;16.10;99.90;;;15.99;100.00;101290.13;4896252;29;20087;-74
2022/10/17 00:05:32;;;;;;;14.77;7.72;;;16.10;99.90;;;16.38;100.00;101357.84;4897453;29;20047;-74
2022/10/17 00:08:01;;;;;;;8.55;7.68;;;16.10;99.90;;;16.37;100.00;101354.31;4896214;29;20052;-74
2022/10/17 00:10:29;;;;;;;13.55;8.13;;;16.10;99.90;;;16.47;100.00;101369.25;4897383;29;20049;-74
2022/10/17 00:12:59;;;;;;;11.73;7.65;;;16.10;99.90;;;16.53;100.00;101360.28;4897768;29;20058;-74
2022/10/17 00:15:27;;;;;;;9.30;7.00;;;16.10;99.90;;;16.59;100.00;101368.16;4897625;29;20417;-74
2022/10/17 00:17:56;;;;;;;9.02;7.93;;;16.20;99.90;;;16.43;100.00;101354.22;4897386;29;20064;-74
2022/10/17 00:20:25;;;;;;;8.65;7.20;;;16.10;99.90;;;16.37;100.00;101340.09;4897280;29;20487;-74
2022/10/17 00:22:54;;;;;;;9.13;7.75;;;16.10;99.90;;;16.44;100.00;101345.28;4897274;29;20049;-74
2022/10/17 00:25:22;;;;;;;12.40;8.00;;;16.10;99.90;;;16.41;100.00;101355.13;4897678;29;20044;-74
2022/10/17 00:27:50;;;;;;;8.75;7.78;;;16.10;99.90;;;16.35;100.00;101345.47;4897076;29;20037;-74
2022/10/17 00:30:20;;;;;;;8.65;7.82;;;16.00;99.90;;;16.44;100.00;101350.59;4897480;29;20056;-74
2022/10/17 00:32:49;;;;;;;9.93;8.93;;;16.00;99.90;;;16.24;100.00;101343.00;4900735;29;20059;-74
2022/10/17 00:35:17;;;;;;;10.25;8.38;;;15.90;99.90;;;16.23;100.00;101359.06;4900681;29;20044;-74
2022/10/17 00:37:46;;;;;;;11.65;8.63;;;15.90;99.90;;;16.16;100.00;101352.09;4900650;29;20045;-74
2022/10/17 00:40:14;;;;;;;10.27;9.00;;;15.80;99.90;;;16.10;100.00;101349.53;4900708;29;20143;-74
2022/10/17 00:42:42;;;;;;;11.82;8.95;;;15.80;99.90;;;16.03;100.00;101342.53;4900669;29;20064;-74
2022/10/17 00:45:21;;;;;;;13.23;9.63;;;15.70;99.90;;;16.13;100.00;101346.78;4899271;29;20048;-74
2022/10/17 00:47:56;;;;;;;10.18;9.10;;;15.80;99.90;;;16.18;100.00;101352.94;4900729;29;20131;-74
2022/10/17 00:50:25;;;;;;;12.73;9.68;;;15.80;99.90;;;16.19;100.00;101360.03;4899386;29;20040;-73
2022/10/17 00:52:55;;;;;;;11.55;9.00;;;15.80;99.90;;;16.15;100.00;101363.66;4898933;29;20057;-74
2022/10/17 00:55:28;;;;;;;12.18;9.30;;;15.80;99.90;;;15.91;100.00;101332.97;4900480;29;20048;-73
2022/10/17 00:57:58;;;;;;;13.88;10.13;;;15.80;99.90;;;15.93;100.00;101330.31;4900305;29;20049;-74
2022/10/17 01:00:27;;;;;;;12.45;9.88;;;15.80;99.90;;;16.11;100.00;101356.63;4898981;29;20151;-74
2022/10/17 01:02:58;;;;;;;11.57;10.38;;;15.80;99.90;;;16.18;100.00;101352.94;4899159;29;20076;-74
2022/10/17 01:05:26;;;;;;;14.82;10.85;;;15.80;99.90;;;16.18;100.00;101352.94;4900255;29;20055;-74
2022/10/17 01:07:56;;;;;;;13.90;10.75;;;15.80;99.90;;;16.17;100.00;101349.38;4900109;29;20045;-74
2022/10/17 01:10:30;;;;;;;13.18;10.13;;;15.90;99.90;;;16.28;100.00;101344.69;4900017;29;20096;-74
2022/10/17 01:13:12;;;;;;;17.10;10.40;;;15.90;99.90;;;16.22;100.00;101339.47;4900272;29;20044;-74
2022/10/17 01:15:57;;;;;;;13.50;10.43;;;15.90;99.90;;;16.35;100.00;101334.78;4898707;29;20501;-74
2022/10/17 01:18:41;;;;;;;13.52;10.68;;;16.00;99.90;;;16.43;100.00;101313.25;4900033;29;20076;-74
2022/10/17 01:21:46;;;;;;;12.75;10.45;;;16.00;99.90;;;16.36;100.00;101324.97;4898769;29;20135;-74
2022/10/17 01:24:47;;;;;;;11.20;10.10;;;16.10;99.90;;;16.37;100.00;101322.28;4888726;29;20053;-74
2022/10/17 01:27:47;;;;;;;15.43;11.18;;;16.00;99.90;;;16.15;100.00;101305.81;4899715;29;20045;-74
2022/10/17 01:30:44;;;;;;;;;;;15.90;99.90;;;16.26;100.00;101306.47;4899211;29;20049;-74
2022/10/17 01:33:22;;;;;;;14.40;11.05;;;16.00;99.90;;;16.30;100.00;101319.78;4896734;29;19929;-74
2022/10/17 01:35:57;;;;;;;14.35;11.02;;;15.90;99.90;;;16.09;100.00;101307.72;4899810;29;20068;-74
2022/10/17 01:38:38;;;;;;;16.98;11.80;;;15.80;99.90;;;16.07;100.00;101306.88;4898470;29;20590;-74
2022/10/17 01:41:16;;;;;;;14.82;10.77;;;15.80;99.90;;;16.21;100.00;101320.84;4898242;29;20056;-74
2022/10/17 01:43:53;;;;;;;14.40;11.75;;;15.80;99.90;;;16.15;100.00;101326.28;4898243;29;20088;-74
2022/10/17 01:46:27;;;;;;;15.95;12.23;;;15.80;99.90;;;16.06;100.00;101302.47;4898575;29;20148;-74
2022/10/17 01:49:00;;;;;;;13.93;11.95;;;15.90;99.90;;;16.32;100.00;101310.81;4898363;29;20108;-74
2022/10/17 01:51:34;;;;;;;13.90;12.38;;;15.90;99.90;;;16.23;100.00;101305.66;4899491;29;20040;-74
2022/10/17 01:54:07;;;;;;;14.50;12.90;;;15.90;99.90;;;16.40;100.00;101300.84;4898112;29;20044;-74
2022/10/17 01:56:38;;;;;;;15.02;11.73;;;16.00;99.90;;;16.35;100.00;101284.06;4898209;29;20070;-74
2022/10/17 01:59:19;;;;;;;14.13;12.63;;;16.10;99.90;;;16.33;100.00;101301.91;4898173;29;20059;-75
2022/10/17 02:01:51;;;;;;;18.25;12.48;;;16.00;99.90;;;16.44;100.00;101296.31;4898209;29;20091;-74
2022/10/17 02:04:22;;;;;;;15.48;12.95;;;16.10;99.90;;;16.50;100.00;101299.78;4897962;29;20506;-74
2022/10/17 02:06:50;;;;;;;18.52;12.63;;;16.10;99.90;;;16.52;100.00;101295.28;4899327;29;20089;-74
2022/10/17 02:09:22;;;;;;;15.18;12.18;;;16.20;99.90;;;16.59;100.00;101277.34;4897891;29;20060;-74
2022/10/17 02:12:16;;;;;;;14.38;12.50;;;16.30;99.90;;;16.74;100.00;101293.88;4897910;29;20052;-74
2022/10/17 02:15:05;;;;;;;17.52;12.05;;;16.40;99.90;;;16.60;100.00;101284.41;4897708;29;20059;-74
2022/10/17 02:17:45;;;;;;;15.13;12.30;;;16.40;99.90;;;16.61;100.00;101287.06;4898914;29;20048;-74
2022/10/17 02:20:24;;;;;;;16.00;13.15;;;16.30;99.90;;;16.47;100.00;101264.22;4897757;29;20057;-74
2022/10/17 02:22:58;;;;;;;14.25;12.48;;;16.30;99.90;;;16.38;100.00;101227.00;4898795;29;20486;-74
2022/10/17 02:25:37;;;;;;;15.48;12.75;;;16.30;99.90;;;16.64;100.00;101273.66;4898797;29;20083;-74
2022/10/17 02:28:19;;;;;;;14.52;12.90;;;16.30;99.90;;;16.60;100.00;101271.97;4897759;29;20053;-74
2022/10/17 02:30:56;;;;;;;13.55;12.15;;;16.30;99.90;;;16.58;100.00;101270.22;4897516;29;20049;-74
2022/10/17 02:33:30;;;;;;;15.82;12.27;;;16.30;99.90;;;16.64;100.00;101273.66;4898658;29;20525;-74
2022/10/17 02:36:06;;;;;;;16.83;12.38;;;16.30;99.90;;;16.65;100.00;101290.53;4897322;29;20478;-74
2022/10/17 02:38:35;;;;;;;14.13;12.70;;;16.30;99.90;;;16.66;100.00;101289.63;4898789;29;20139;-74
2022/10/17 02:41:06;;;;;;;15.93;12.52;;;16.40;99.90;;;16.63;100.00;101290.56;4897279;29;20589;-74
2022/10/17 02:43:36;;;;;;;13.45;12.10;;;16.40;99.90;;;16.45;100.00;101253.56;4898542;29;20433;-74
2022/10/17 02:46:06;;;;;;;16.77;13.32;;;16.40;99.90;;;16.78;100.00;101303.56;4898747;29;20146;-74
2022/10/17 02:48:38;;;;;;;14.50;12.98;;;16.50;99.90;;;16.89;100.00;101306.00;4896933;29;20147;-73
2022/10/17 02:51:19;;;;;;;14.60;12.65;;;16.60;99.90;;;16.89;100.00;101312.25;4897263;29;20143;-73
2022/10/17 02:53:56;;;;;;;15.23;13.15;;;16.60;99.90;;;17.02;100.00;101315.50;4896443;29;20083;-73
2022/10/17 02:56:27;;;;;;;15.38;13.80;;;16.70;99.90;;;16.52;100.00;101241.88;4897155;29;20408;-73
2022/10/17 02:58:58;;;;;;;15.15;12.63;;;16.70;99.90;;;16.87;100.00;101310.50;4896931;29;20555;-74
2022/10/17 03:01:27;;;;;;;14.88;12.93;;;16.70;99.90;;;16.95;100.00;101311.22;4897326;29;20072;-74
2022/10/17 03:04:06;;;;;;;14.55;13.15;;;16.70;99.90;;;17.00;100.00;101304.84;4898223;29;20450;-74
2022/10/17 03:06:36;;;;;;;16.42;13.20;;;16.80;99.90;;;16.98;100.00;101301.34;4898103;29;20093;-74
2022/10/17 03:09:05;;;;;;;16.48;12.70;;;16.80;99.90;;;16.96;100.00;101303.16;4896661;29;20049;-73
2022/10/17 03:11:34;;;;;;;21.05;13.90;;;16.80;99.90;;;17.00;100.00;101310.19;4897044;29;20120;-74
2022/10/17 03:14:02;;;;;;;14.45;12.93;;;16.80;99.90;;;17.01;100.00;101314.59;4897980;29;20116;-74
2022/10/17 03:16:30;;;;;;;14.20;12.73;;;16.80;99.90;;;17.10;100.00;101313.53;4897960;29;20041;-73
2022/10/17 03:18:59;;;;;;;17.05;13.00;;;16.80;99.90;;;17.10;100.00;101321.53;4896759;29;20096;-73
2022/10/17 03:21:27;;;;;;;16.67;12.50;;;16.90;99.90;;;17.17;100.00;101311.59;4897901;29;20109;-73
2022/10/17 03:23:57;;;;;;;15.38;12.35;;;16.90;99.90;;;17.12;100.00;101323.28;4896455;29;20056;-74
2022/10/17 03:26:26;;;;;;;15.60;13.40;;;16.90;99.90;;;17.08;100.00;101315.34;4896710;29;20513;-74
2022/10/17 03:28:54;;;;;;;15.23;13.60;;;16.90;99.90;;;17.15;100.00;101317.84;4896539;29;20486;-73
2022/10/17 03:31:23;;;;;;;21.02;13.70;;;16.90;99.90;;;17.15;100.00;101308.94;4896479;29;20422;-73
2022/10/17 03:33:53;;;;;;;16.88;12.90;;;16.90;99.90;;;17.19;100.00;101309.75;4896557;29;20049;-73
2022/10/17 03:36:21;;;;;;;19.05;13.65;;;16.90;99.90;;;17.23;100.00;101314.97;4896326;29;20104;-73
2022/10/17 03:38:54;;;;;;;18.60;13.68;;;17.00;99.90;;;17.09;100.00;101299.28;4896334;29;20045;-73
2022/10/17 03:41:24;;;;;;;15.43;12.98;;;16.90;99.90;;;17.16;100.00;101321.41;4896465;29;20482;-73
2022/10/17 03:43:54;;;;;;;15.30;12.45;;;16.90;99.90;;;17.09;100.00;101312.63;4896499;29;20467;-73
2022/10/17 03:46:24;;;;;;;18.77;13.13;;;16.90;99.90;;;17.10;100.00;101306.41;4896359;29;20105;-73
2022/10/17 03:48:54;;;;;;;16.42;13.07;;;16.90;99.90;;;17.04;100.00;101295.84;4896369;29;20418;-73
2022/10/17 03:51:22;;;;;;;14.70;12.95;;;16.90;99.90;;;16.74;100.00;101245.78;4896239;29;20400;-73
2022/10/17 03:53:55;;;;;;;21.20;12.45;;;17.00;99.90;;;17.24;100.00;101324.78;4896447;29;20467;-74
2022/10/17 03:56:26;;;;;;;18.98;13.65;;;17.00;99.90;;;17.30;100.00;101329.09;4897680;29;20045;-74
2022/10/17 03:59:02;;;;;;;14.95;12.80;;;17.10;99.90;;;17.35;100.00;101322.72;4896287;29;20554;-73
2022/10/17 04:01:33;;;;;;;16.92;14.02;;;17.10;99.90;;;17.01;100.00;101266.50;4896171;29;20052;-74
2022/10/17 04:04:02;;;;;;;20.95;13.50;;;17.20;99.90;;;17.42;100.00;101331.47;4896298;29;20447;-73
2022/10/17 04:06:34;;;;;;;19.05;11.82;;;17.30;99.90;;;17.54;100.00;101333.84;4900061;29;20052;-74
2022/10/17 04:09:03;;;;;;;14.13;12.25;;;17.30;99.90;;;17.47;100.00;101330.44;4900003;29;20049;-74
2022/10/17 04:11:40;;;;;;;14.05;11.35;;;17.30;99.90;;;17.53;100.00;101326.75;4899909;29;20091;-74
2022/10/17 04:14:10;;;;;;;14.95;12.25;;;17.30;99.90;;;17.53;100.00;101318.72;4899790;29;20565;-73
2022/10/17 04:16:39;;;;;;;;;;;17.40;99.90;;;17.71;100.00;101335.16;4900488;29;20118;-73
2022/10/17 04:19:16;;;;;;;16.08;11.60;;;17.50;99.90;;;17.66;100.00;101318.38;4899950;29;20029;-73
2022/10/17 04:21:47;;;;;;;13.75;11.13;;;17.60;99.90;;;17.90;100.00;101341.78;4899785;29;20147;-73
2022/10/17 04:24:16;;;;;;;13.68;11.10;;;17.70;99.90;;;18.03;100.00;101348.59;4900879;29;20123;-73
2022/10/17 04:27:08;;;;;;;11.77;10.68;;;17.70;99.90;;;18.15;100.00;101354.53;4897850;29;20115;-74
2022/10/17 04:29:40;;;;;;;13.93;9.43;;;17.90;99.90;;;18.21;100.00;101349.88;4899678;29;20052;-74
2022/10/17 04:32:17;;;;;;;14.55;10.20;;;17.90;99.90;;;18.18;100.00;101319.59;4900887;29;20451;-73
2022/10/17 04:34:49;;;;;;;16.42;9.60;;;18.00;99.90;;;18.24;100.00;101354.25;4899536;29;20484;-73
2022/10/17 04:37:20;;;;;;;15.60;9.85;;;18.00;99.90;;;18.37;100.00;101348.50;4899686;29;20048;-74
2022/10/17 04:39:50;;;;;;;12.35;9.43;;;18.10;99.90;;;18.39;100.00;101349.34;4899667;29;20060;-73
2022/10/17 04:42:20;;;;;;;14.10;9.82;;;18.10;99.90;;;18.49;100.00;101353.56;4900794;29;20056;-74
2022/10/17 04:44:51;;;;;;;15.25;9.23;;;18.20;99.90;;;18.43;100.00;101345.69;4899609;29;20132;-73
2022/10/17 04:47:19;;;;;;;10.32;9.07;;;18.20;99.90;;;18.54;100.00;101362.31;4899113;29;20170;-73
2022/10/17 04:49:48;;;;;;;13.95;9.20;;;18.20;99.90;;;18.53;100.00;101351.66;4899323;29;20406;-73
2022/10/17 04:52:17;;;;;;;13.90;9.50;;;18.20;99.90;;;18.51;99.81;101354.38;4899019;29;20526;-74
2022/10/17 04:54:48;;;;;;;13.23;9.57;;;18.20;99.90;;;18.55;99.55;101349.81;4899430;29;20072;-74
2022/10/17 04:57:19;;;;;;;15.68;10.07;;;18.30;99.90;;;18.53;99.46;101346.28;4899104;29;20049;-74
2022/10/17 04:59:56;;;;;;;14.77;9.23;;;18.30;99.90;;;18.56;99.41;101349.75;4898969;29;20582;-74
2022/10/17 05:02:50;;;;;;;15.63;9.55;;;18.30;99.90;;;18.14;99.18;101272.44;4899082;29;20419;-73
2022/10/17 05:05:20;;;;;;;14.63;9.70;;;18.30;99.90;;;17.95;99.32;101251.53;4899005;29;20528;-73
2022/10/17 05:07:52;;;;;;;15.27;10.05;;;18.30;99.90;;;18.56;99.97;101375.69;4898926;29;20137;-74
2022/10/17 05:10:24;;;;;;;15.20;10.25;;;18.30;99.90;;;18.54;100.00;101386.44;4898684;29;20164;-74
2022/10/17 05:12:56;;;;;;;17.27;9.60;;;18.30;99.90;;;18.61;100.00;101388.03;4899111;29;20052;-74
2022/10/17 05:15:29;;;;;;;17.55;9.30;;;18.30;99.90;;;18.60;100.00;101380.91;4898684;29;20049;-74
2022/10/17 05:17:58;;;;;;;13.10;9.57;;;18.30;99.90;;;18.49;100.00;101345.50;4898779;29;20045;-73
2022/10/17 05:20:29;;;;;;;14.27;10.02;;;18.40;99.90;;;18.73;99.49;101371.59;4898739;29;20498;-73
2022/10/17 05:22:59;;;;;;;11.90;9.63;;;18.40;99.90;;;18.79;99.16;101360.66;4899793;29;20498;-73
2022/10/17 05:25:32;;;;;;;15.57;9.82;;;18.50;99.90;;;18.87;98.99;101372.03;4898842;29;20055;-73
2022/10/17 05:28:02;;;;;;;14.90;9.20;;;18.60;99.90;;;18.87;98.34;101374.72;4899884;29;20083;-73
2022/10/17 05:30:31;;;;;;;18.45;9.88;;;18.60;99.90;;;18.87;98.08;101373.88;4898928;29;20417;-73
2022/10/17 05:33:06;;;;;;;11.40;9.93;;;18.60;99.90;;;18.86;98.09;101380.13;4898681;29;20048;-73
2022/10/17 05:35:35;;;;;;;15.95;9.75;;;18.60;99.90;;;18.90;98.04;101382.69;4898336;29;20048;-74
2022/10/17 05:38:03;;;;;;;16.80;9.80;;;18.60;99.90;;;18.97;97.77;101390.56;4898628;29;20056;-74
2022/10/17 05:40:34;;;;;;;;;;;18.70;99.90;;;19.04;96.93;101392.13;4898878;29;20045;-73
2022/10/17 05:43:04;;;;;;;13.40;9.48;;;18.70;99.90;;;18.61;96.61;101296.03;4898365;29;19983;-74
2022/10/17 05:45:33;;;;;;;13.52;9.25;;;18.80;99.90;;;19.08;96.30;101373.22;4898362;29;20131;-74
2022/10/17 05:48:02;;;;;;;16.17;9.20;;;18.80;99.90;;;19.07;96.15;101381.28;4898024;29;20044;-74
2022/10/17 05:50:30;;;;;;;11.95;9.20;;;18.80;99.90;;;19.02;96.49;101375.19;4898426;29;20135;-74
2022/10/17 05:53:07;;;;;;;13.80;9.32;;;18.80;99.90;;;19.09;96.35;101379.44;4898005;29;20152;-73
2022/10/17 05:55:40;;;;;;;12.60;10.20;;;18.80;99.90;;;19.04;95.77;101376.91;4898343;29;20052;-73
2022/10/17 05:58:10;;;;;;;12.30;9.23;;;18.80;99.90;;;19.04;96.25;101382.28;4898013;29;20056;-73
2022/10/17 06:00:57;;;;;;;15.23;9.00;;;18.70;99.90;;;19.04;96.07;101393.00;4898148;29;20057;-73
2022/10/17 06:03:27;;;;;;;13.85;9.02;;;18.80;99.90;;;19.16;95.96;101403.34;4898008;29;20048;-73
2022/10/17 06:05:55;;;;;;;10.50;8.90;;;18.80;99.90;;;19.11;95.75;101393.66;4897956;29;20117;-74
2022/10/17 06:08:24;;;;;;;9.77;8.75;;;18.80;99.90;;;19.22;95.52;101407.66;4897611;29;20064;-74
2022/10/17 06:10:52;;;;;;;18.35;9.75;;;18.90;99.90;;;19.22;95.48;101399.59;4897505;29;20040;-74
2022/10/17 06:13:22;;;;;;;9.68;8.57;;;18.90;99.90;;;19.22;95.37;101404.97;4897785;29;20048;-73
2022/10/17 06:15:52;;;;;;;12.13;9.13;;;18.90;99.90;;;19.14;95.48;101407.88;4897830;29;20052;-74
2022/10/17 06:18:20;;;;;;;11.50;8.65;;;18.90;99.90;;;19.23;95.40;101415.63;4897687;29;20092;-74
2022/10/17 06:20:49;;;;;;;10.30;8.85;;;18.90;99.90;;;19.23;95.25;101412.97;4897671;29;20041;-74
2022/10/17 06:23:19;;;;;;;10.18;9.13;;;18.90;99.90;;;19.22;95.36;101405.81;4897448;29;20049;-70
2022/10/17 06:26:00;;;;;;;12.35;8.60;;;18.90;99.90;;;19.31;95.11;101413.59;4897698;29;20048;-70
2022/10/17 06:28:32;;;;;;;12.55;9.13;;;19.00;99.90;;;19.18;95.06;101422.94;4896589;29;20056;-69
2022/10/17 06:31:05;;;;;;;11.60;9.05;;;19.00;99.90;;;19.10;96.21;101418.75;4898667;29;20076;-69
2022/10/17 06:33:34;;;;;;;10.98;8.93;;;18.80;99.90;;;19.16;96.13;101431.97;4897234;29;20498;-70
2022/10/17 06:36:05;;;;;;;12.65;9.35;;;18.90;99.90;;;19.03;96.75;101438.63;4897141;29;20048;-75
2022/10/17 06:38:35;;;;;;;10.93;8.98;;;18.80;99.90;;;19.08;97.23;101434.88;4897550;29;20094;-75
2022/10/17 06:41:12;;;;;;;14.13;9.70;;;18.80;99.90;;;19.04;97.16;101424.28;4897252;29;20077;-74
2022/10/17 06:43:45;;;;;;;13.45;9.85;;;18.80;99.90;;;19.14;96.95;101409.69;4896999;29;20044;-75
2022/10/17 06:46:32;;;;;;;12.73;9.32;;;18.90;99.90;;;19.12;96.74;101420.47;4898329;29;20063;-74
2022/10/17 06:49:04;;;;;;;13.43;9.93;;;18.90;99.90;;;18.90;97.88;101433.63;4897156;29;20056;-75
2022/10/17 06:52:11;;;;;;;10.93;9.50;;;18.70;99.90;;;18.84;98.60;101423.09;4887417;29;20143;-75
2022/10/17 06:54:47;;;;;;;12.88;10.05;;;18.70;99.90;;;18.91;98.86;101446.09;4896978;29;20060;-72
2022/10/17 06:57:34;;;;;;;14.07;10.10;;;18.60;99.90;;;18.90;99.02;101473.84;4898338;29;20418;-73
2022/10/17 07:00:25;;;;;;;11.68;9.27;;;18.70;99.90;;;18.37;99.04;101394.03;4898393;29;20063;-73
2022/10/17 07:02:56;;;;;;;14.93;9.60;;;18.70;99.90;;;19.03;99.03;101498.50;4896985;29;20495;-74
2022/10/17 07:05:25;;;;;;;20.42;10.13;;;18.70;99.90;;;19.01;99.10;101510.22;4896966;29;20065;-77
2022/10/17 07:07:53;;;;;;;12.70;10.45;;;18.70;99.90;;;19.04;99.10;101512.78;4896768;29;20135;-70
2022/10/17 07:10:21;;;;;;;14.65;10.90;;;18.70;99.90;;;18.96;99.01;101502.28;4898136;29;20048;-69
2022/10/17 07:12:50;;;;;;;13.75;10.10;;;18.70;99.90;;;19.11;99.01;101538.50;4897914;29;20044;-71
2022/10/17 07:15:18;;;;;;;16.52;10.05;;;18.80;99.90;;;19.27;98.78;101542.50;4896641;29;20041;-76
2022/10/17 07:17:50;;;;;;;11.65;9.20;;;18.90;99.90;;;19.24;98.38;101558.72;4896753;29;20569;-73
2022/10/17 07:20:19;;;;;;;10.90;9.73;;;18.90;99.90;;;19.23;98.79;101564.97;4896786;29;20059;-71
2022/10/17 07:22:48;;;;;;;16.73;9.85;;;18.90;99.90;;;19.23;98.98;101567.66;4896593;29;20052;-70
2022/10/17 07:25:16;;;;;;;14.30;10.32;;;19.00;99.90;;;19.29;99.07;101579.09;4896596;29;20143;-71
2022/10/17 07:27:50;;;;;;;14.10;10.35;;;19.00;99.90;;;19.22;99.46;101590.06;4896648;29;20075;-74
2022/10/17 07:30:19;;;;;;;11.13;10.00;;;18.90;99.90;;;19.31;99.57;101605.88;4897969;29;20461;-78
2022/10/17 07:33:01;;;;;;;13.50;11.23;;;18.90;99.90;;;19.33;99.45;101604.97;4896689;29;20121;-77
2022/10/17 07:35:31;;;;;;;16.10;11.57;;;19.00;99.90;;;19.30;100.00;101614.88;4896719;29;20057;-78
2022/10/17 07:37:59;;;;;;;18.92;10.98;;;19.00;99.90;;;19.10;100.00;101595.75;4896510;29;20048;-80
2022/10/17 07:40:28;;;;;;;16.05;11.52;;;18.90;99.90;;;19.18;100.00;101621.44;4896197;29;20509;-77
2022/10/17 07:42:57;;;;;;;14.95;12.05;;;18.90;99.90;;;19.23;100.00;101630.25;4896906;29;20061;-78
2022/10/17 07:45:26;;;;;;;16.92;13.02;;;18.90;99.90;;;19.18;100.00;101637.53;4896478;29;20072;-79
2022/10/17 07:47:57;;;;;;;16.10;11.82;;;18.80;99.90;;;19.19;100.00;101636.63;4896391;29;20108;-76
2022/10/17 07:50:28;;;;;;;19.17;11.43;;;18.80;99.90;;;19.19;100.00;101652.72;4896354;29;20056;-79
2022/10/17 07:52:56;;;;;;;16.02;11.50;;;18.80;99.90;;;19.19;100.00;101649.16;4897595;29;20136;-73
2022/10/17 07:55:24;;;;;;;13.32;11.88;;;18.80;99.90;;;19.02;100.00;101628.16;4897904;29;20075;-73
2022/10/17 07:57:52;;;;;;;19.42;11.45;;;18.80;99.90;;;19.08;100.00;101651.25;4897657;29;20048;-74
2022/10/17 08:00:22;;;;;;;40.63;13.43;;;18.70;99.90;;;19.13;100.00;101641.25;4897462;29;20052;-72
2022/10/17 08:02:51;;;;;;;15.95;10.80;;;18.80;99.90;;;19.04;100.00;101641.53;4897555;29;20044;-71
2022/10/17 08:05:19;;;;;;;15.27;11.32;;;18.70;99.90;;;19.10;100.00;101654.75;4897419;29;20045;-72
2022/10/17 08:07:49;;;;;;;14.80;11.15;;;18.70;99.90;;;19.06;100.00;101659.34;4897326;29;20067;-71
2022/10/17 08:10:17;;;;;;;17.90;12.23;;;18.70;99.90;;;18.90;100.00;101636.53;4897284;29;20131;-71
2022/10/17 08:12:45;;;;;;;17.08;11.98;;;18.60;99.90;;;18.90;100.00;101625.78;4897278;29;20048;-71
2022/10/17 08:15:14;;;;;;;17.45;11.18;;;18.60;99.90;;;19.09;100.00;101627.06;4897339;29;20554;-71
2022/10/17 08:17:42;;;;;;;13.57;10.50;;;18.70;99.90;;;19.23;100.00;101618.63;4897542;29;20048;-71
2022/10/17 08:20:11;;;;;;;13.43;10.88;;;18.80;99.90;;;19.30;100.00;101609.50;4897388;29;20055;-71
2022/10/17 08:22:40;;;;;;;16.13;10.80;;;18.90;99.90;;;19.34;100.00;101632.66;4895847;29;20076;-71
2022/10/17 08:25:10;;;;;;;13.27;11.10;;;18.90;99.90;;;19.30;100.00;101647.94;4897660;29;20059;-71
2022/10/17 08:27:38;;;;;;;18.52;10.43;;;18.90;99.90;;;19.27;100.00;101652.50;4897453;29;20076;-71
2022/10/17 08:30:08;;;;;;;15.40;11.20;;;18.90;99.90;;;19.26;100.00;101626.63;4897248;29;20048;-71
2022/10/17 08:32:37;;;;;;;17.98;11.23;;;18.90;99.90;;;19.30;100.00;101614.88;4896018;29;20053;-71
2022/10/17 08:35:06;;;;;;;14.40;10.55;;;18.90;99.90;;;19.35;100.00;101608.47;4897232;29;20045;-71
2022/10/17 08:37:35;;;;;;;14.38;10.95;;;19.00;99.90;;;19.30;100.00;101593.41;4897338;29;20081;-71
2022/10/17 08:40:05;;;;;;;17.70;10.77;;;19.00;99.90;;;19.36;100.00;101603.97;4897123;29;20037;-71
2022/10/17 08:43:24;;;;;;;16.35;10.90;;;18.90;99.90;;;19.43;100.00;101605.56;4897288;29;20064;-71
2022/10/17 08:45:59;;;;;;;15.52;10.93;;;19.00;99.90;;;19.02;100.00;101541.44;4897603;29;20052;-75
2022/10/17 08:48:31;;;;;;;16.35;10.75;;;19.10;99.90;;;19.33;100.00;101601.38;4897135;29;20102;-76
2022/10/17 08:51:06;;;;;;;16.17;10.27;;;19.10;99.90;;;19.55;100.00;101627.56;4898268;29;20064;-76
2022/10/17 08:53:39;;;;;;;13.43;10.18;;;19.20;99.90;;;19.55;100.00;101643.66;4900058;29;20049;-70
2022/10/17 08:56:18;;;;;;;11.35;10.00;;;19.10;99.90;;;19.53;100.00;101650.03;4898883;29;20143;-71
2022/10/17 08:59:13;;;;;;;14.18;10.38;;;19.20;99.90;;;19.56;100.00;101663.34;4900439;29;20041;-71
2022/10/17 09:01:51;;;;;;;15.20;10.20;;;19.20;99.90;;;19.55;100.00;101675.00;4899118;29;20112;-71
2022/10/17 09:04:48;;;;;;;16.27;10.48;;;19.20;99.90;;;19.56;100.00;101674.06;4900289;29;20507;-71
2022/10/17 09:07:22;;;;;;;12.20;10.30;;;19.20;99.90;;;19.56;100.00;101647.22;4900387;29;20116;-71
2022/10/17 09:10:02;;;;;;;14.95;10.20;;;19.20;99.90;;;19.59;100.00;101648.00;4900336;29;20053;-71
2022/10/17 09:12:40;;;;;;;19.48;10.13;;;19.20;99.90;;;19.62;100.00;101657.78;4900141;29;20132;-71
2022/10/17 09:15:38;;;;;;;14.30;9.85;;;19.20;99.90;;;19.52;100.00;101635.72;4900288;29;20096;-71
2022/10/17 09:18:13;;;;;;;18.02;10.30;;;19.20;99.90;;;19.55;100.00;101649.03;4899590;29;20060;-71
2022/10/17 09:20:52;;;;;;;15.52;9.60;;;19.20;99.90;;;19.56;100.00;101649.91;4900012;29;20135;-72
2022/10/17 09:23:24;;;;;;;17.40;9.95;;;19.20;99.90;;;19.55;100.00;101658.91;4899037;29;20055;-72
2022/10/17 09:25:55;;;;;;;11.75;8.68;;;19.20;99.90;;;19.55;100.00;101670.50;4900166;29;20119;-72
2022/10/17 09:28:29;;;;;;;13.75;9.00;;;19.20;99.90;;;19.58;100.00;101688.34;4900074;29;20513;-72
2022/10/17 09:31:03;;;;;;;13.68;9.00;;;19.20;99.90;;;19.46;100.00;101696.72;4899811;29;20045;-72
2022/10/17 09:33:40;;;;;;;14.57;9.20;;;19.10;99.90;;;19.45;100.00;101716.44;4899627;29;20090;-71
2022/10/17 09:36:28;;;;;;;13.35;9.05;;;19.10;99.90;;;19.40;100.00;101713.88;4898490;29;20044;-72
2022/10/17 09:39:00;;;;;;;14.43;10.20;;;19.10;99.90;;;19.39;100.00;101719.28;4899751;29;20129;-72
2022/10/17 09:41:37;;;;;;;11.93;9.45;;;19.00;99.90;;;19.36;100.00;101744.41;4899589;29;20479;-70
2022/10/17 09:44:30;;;;;;;16.90;10.23;;;18.90;99.90;;;19.41;100.00;101722.81;4899990;29;20570;-75
2022/10/17 09:47:28;;;;;;;12.45;10.90;;;19.00;99.90;;;19.37;100.00;101721.13;4899689;29;20055;-74
2022/10/17 09:49:57;;;;;;;13.45;10.00;;;19.00;99.90;;;19.41;100.00;101736.22;4899311;29;20136;-74
2022/10/17 09:52:31;;;;;;;16.00;10.63;;;19.00;99.90;;;19.30;100.00;101740.97;4898725;29;20123;-75
2022/10/17 09:55:05;;;;;;;15.45;10.60;;;18.90;99.90;;;19.28;100.00;101746.34;4899762;29;20067;-67
2022/10/17 09:57:55;;;;;;;13.77;10.35;;;18.90;99.90;;;19.18;100.00;101741.28;4899305;29;20048;-73
2022/10/17 10:00:26;;;;;;;13.68;9.90;;;18.80;99.90;;;19.21;100.00;101750.13;4899142;29;20075;-74
2022/10/17 10:03:14;;;;;;;11.38;9.45;;;18.80;99.90;;;19.28;100.00;101756.22;4898172;29;20416;-74
2022/10/17 10:05:59;;;;;;;13.63;9.50;;;18.80;99.90;;;19.19;100.00;101753.75;4899312;29;20052;-73
2022/10/17 10:08:31;;;;;;;10.18;8.90;;;18.80;99.90;;;18.97;100.00;101755.25;4899138;29;20139;-73
2022/10/17 10:11:03;;;;;;;11.57;9.18;;;18.70;99.90;;;19.17;100.00;101775.28;4899065;29;20055;-76
2022/10/17 10:13:34;;;;;;;11.95;7.90;;;18.70;99.90;;;19.12;100.00;101768.25;4899125;29;20045;-77
2022/10/17 10:16:17;;;;;;;;;;;18.70;99.90;;;19.03;100.00;101757.78;4899260;29;20048;-75
2022/10/17 10:18:48;;;;;;;12.77;7.85;;;18.80;99.90;;;18.88;100.00;101759.91;4899194;29;19977;-76
2022/10/17 10:21:20;;;;;;;12.88;7.82;;;18.70;99.90;;;19.11;100.00;101788.84;4899042;29;20049;-76
2022/10/17 10:24:12;;;;;;;8.32;7.05;;;18.70;99.90;;;18.98;100.00;101808.84;4897803;29;20496;-77